KFXE/FXE METAR and TAF weather

Enter ICAO airport designator
Station Type Date Time Source
KFXE METAR 2021/02/24 17:00 UTC NOAA

KFXE 241700Z 07007KT 10SM FEW008 SCT022 OVC085 24/21 A3017 RMK AO2 T02440211


Station Type Date Time Source
KFXE Decoded METAR 2021/02/24 17:00 UTC NOAA

FORT LAUDERDALE EXECUTIVE, FL, United States (KFXE) 26-12N 080-11W 6M
Feb 24, 2021 - 12:00 PM EST / 2021.02.24 1700 UTC
Wind: from the ENE (070 degrees) at 8 MPH (7 KT):0
Visibility: 10 mile(s):0
Sky conditions: overcast
Temperature: 75.9 F (24.4 C)
Dew Point: 70.0 F (21.1 C)
Relative Humidity: 81%
Pressure (altimeter): 30.17 in. Hg (1021 hPa)
ob: KFXE 241700Z 07007KT 10SM FEW008 SCT022 OVC085 24/21 A3017 RMK AO2 T02440211
cycle: 17

Station Type Date Time Source
KFXE TAF 2021/02/24 15:06 UTC NOAA

TAF
AMD KFXE 241503Z 2415/2512 09008KT P6SM VCSH SCT025 SCT050
TEMPO 2415/2417 BKN020
FM241700 13010KT P6SM VCSH SCT025 BKN040
FM250100 VRB04KT P6SM FEW020 SCT050

Example: see airport list